Time;durP1;ratioP1;P1;durP2;ratioP2;P2;SDS_P1;SDS_P2;PMS_P1;PMS_P2;Temp;Humidity;BMP_temperature;BMP_pressure;BME280_temperature;BME280_humidity;BME280_pressure;Samples;Min_cycle;Max_cycle;Signal;HPM_P1;HPM_P2
2021/07/02 00:06:49;;;;;;;1.17;0.60;;;22.10;99.90;;;;;;21001189;22;20595;-65
2021/07/02 00:16:53;;;;;;;0.53;0.53;;;22.00;99.90;;;;;;20987691;28;20193;-67
2021/07/02 00:26:58;;;;;;;0.70;0.40;;;21.80;99.90;;;;;;20986130;28;20224;-66
2021/07/02 00:37:01;;;;;;;0.57;0.57;;;21.60;99.90;;;;;;21034971;28;20188;-67
2021/07/02 00:47:07;;;;;;;1.20;0.67;;;21.60;99.90;;;;;;21051113;28;20580;-67
2021/07/02 00:57:11;;;;;;;0.20;0.10;;;21.50;99.90;;;;;;21067432;28;20611;-67
2021/07/02 01:07:16;;;;;;;0.77;0.40;;;21.50;99.90;;;;;;20942999;22;20268;-66
2021/07/02 01:17:20;;;;;;;0.20;0.20;;;21.40;99.90;;;;;;20883425;28;20571;-67
2021/07/02 01:27:25;;;;;;;3.00;1.03;;;21.30;99.90;;;;;;20906456;28;20705;-65
2021/07/02 01:37:29;;;;;;;4.73;0.77;;;21.30;99.90;;;;;;20977762;28;20224;-66
2021/07/02 01:47:34;;;;;;;1.80;0.60;;;21.30;99.90;;;;;;21009400;28;20659;-67
2021/07/02 01:57:38;;;;;;;0.83;0.80;;;21.00;99.90;;;;;;21001462;28;20192;-67
2021/07/02 02:07:43;;;;;;;0.60;0.50;;;21.20;99.90;;;;;;20864447;22;20233;-67
2021/07/02 02:17:47;;;;;;;0.87;0.87;;;21.00;99.90;;;;;;20926761;28;20212;-68
2021/07/02 02:27:51;;;;;;;1.20;1.10;;;21.10;99.90;;;;;;20926793;28;20312;-68
2021/07/02 02:37:55;;;;;;;1.60;0.40;;;20.90;99.90;;;;;;20922914;28;20277;-68
2021/07/02 02:48:00;;;;;;;3.20;1.30;;;21.00;99.90;;;;;;20912270;28;20714;-67
2021/07/02 02:58:04;;;;;;;2.93;1.00;;;20.90;99.90;;;;;;20911751;28;20194;-67
2021/07/02 03:08:09;;;;;;;2.77;1.87;;;20.90;99.90;;;;;;20986598;28;20316;-67
2021/07/02 03:18:12;;;;;;;2.03;0.90;;;20.70;99.90;;;;;;20992870;28;20220;-67
2021/07/02 03:28:18;;;;;;;0.40;0.40;;;20.90;99.90;;;;;;20991481;28;20274;-67
2021/07/02 03:38:21;;;;;;;1.50;0.73;;;20.70;99.90;;;;;;20978386;28;20283;-68
2021/07/02 03:48:26;;;;;;;0.63;0.63;;;20.70;99.90;;;;;;20989643;28;20325;-66
2021/07/02 03:58:30;;;;;;;1.07;1.00;;;20.70;99.90;;;;;;20967679;28;20614;-66
2021/07/02 04:08:36;;;;;;;0.63;0.63;;;20.60;99.90;;;;;;20988460;28;20784;-67
2021/07/02 04:18:39;;;;;;;0.40;0.27;;;20.50;99.90;;;;;;20934068;28;20553;-67
2021/07/02 04:28:44;;;;;;;1.37;0.60;;;20.40;99.90;;;;;;20877631;28;20252;-67
2021/07/02 04:38:48;;;;;;;0.60;0.60;;;20.40;99.90;;;;;;20962981;28;20189;-67
2021/07/02 04:48:53;;;;;;;0.20;0.00;;;20.60;99.90;;;;;;20985027;28;21235;-67
2021/07/02 04:58:57;;;;;;;0.73;0.20;;;20.60;99.90;;;;;;20984463;28;20650;-69
2021/07/02 05:09:05;;;;;;;1.30;0.87;;;20.80;99.90;;;;;;20890012;28;20328;-68
2021/07/02 05:19:09;;;;;;;2.73;2.43;;;21.10;99.90;;;;;;20900248;28;20276;-67
2021/07/02 05:29:14;;;;;;;1.03;0.97;;;21.30;99.90;;;;;;20901057;28;20387;-68
2021/07/02 05:39:17;;;;;;;0.60;0.50;;;21.60;99.90;;;;;;20898570;28;20217;-67
2021/07/02 05:49:23;;;;;;;0.80;0.60;;;22.10;99.90;;;;;;20895495;28;20324;-68
2021/07/02 05:59:26;;;;;;;2.10;0.97;;;22.30;99.90;;;;;;20878059;28;20225;-68
2021/07/02 06:09:35;;;;;;;2.50;1.13;;;22.80;99.90;;;;;;20896513;28;20224;-68
2021/07/02 06:19:39;;;;;;;0.60;0.50;;;23.10;99.90;;;;;;20908837;28;20269;-67
2021/07/02 06:29:44;;;;;;;2.15;1.95;;;23.40;99.90;;;;;;20911795;28;20624;-67
2021/07/02 06:39:48;;;;;;;1.13;1.08;;;23.80;99.90;;;;;;20793345;28;20202;-66
2021/07/02 06:49:53;;;;;;;2.05;0.85;;;23.90;99.90;;;;;;20808352;28;20330;-67
2021/07/02 07:00:02;;;;;;;1.10;1.00;;;24.00;99.90;;;;;;20884653;28;20245;-68
2021/07/02 07:10:08;;;;;;;0.90;0.90;;;24.10;99.90;;;;;;20906120;28;20229;-67
2021/07/02 07:20:13;;;;;;;0.30;0.30;;;24.20;99.90;;;;;;20905030;28;20259;-67
2021/07/02 07:30:18;;;;;;;0.57;0.38;;;24.40;99.90;;;;;;20903723;28;20252;-68
2021/07/02 07:40:22;;;;;;;1.75;0.80;;;24.80;99.90;;;;;;20905747;28;20225;-68
2021/07/02 07:50:31;;;;;;;1.35;0.75;;;24.80;99.90;;;;;;20902956;28;20233;-68
2021/07/02 08:00:34;;;;;;;1.17;1.08;;;25.00;99.90;;;;;;20884817;28;20652;-66
2021/07/02 08:10:40;;;;;;;1.85;0.82;;;25.10;99.90;;;;;;20903796;28;20698;-67
2021/07/02 08:20:43;;;;;;;2.15;0.70;;;25.30;99.90;;;;;;20883444;28;20221;-67
2021/07/02 08:30:49;;;;;;;2.45;1.52;;;25.60;99.90;;;;;;20902100;28;20221;-70
2021/07/02 08:40:54;;;;;;;0.98;0.98;;;25.90;99.90;;;;;;20897886;28;20227;-66
2021/07/02 08:51:00;;;;;;;0.68;0.32;;;25.80;99.90;;;;;;20867729;28;20221;-68
2021/07/02 09:01:07;;;;;;;2.50;1.00;;;25.80;99.90;;;;;;20798152;28;20269;-66
2021/07/02 09:11:26;;;;;;;1.58;1.48;;;25.50;99.90;;;;;;20874676;28;20252;-69
2021/07/02 09:21:31;;;;;;;0.65;0.65;;;25.70;99.90;;;;;;20879040;28;20284;-68
2021/07/02 09:31:36;;;;;;;1.25;0.93;;;25.90;99.90;;;;;;20896427;28;20315;-67
2021/07/02 09:41:40;;;;;;;1.13;1.02;;;25.80;99.90;;;;;;20878273;28;20204;-66
2021/07/02 09:51:46;;;;;;;1.20;0.47;;;26.00;99.90;;;;;;20904019;28;20316;-66
2021/07/02 10:01:50;;;;;;;0.60;0.57;;;26.40;99.90;;;;;;20911988;28;20578;-66
2021/07/02 10:11:55;;;;;;;1.05;0.70;;;26.40;99.90;;;;;;20910500;28;20710;-67
2021/07/02 10:22:00;;;;;;;0.68;0.47;;;26.40;99.90;;;;;;20910079;28;20205;-66
2021/07/02 10:32:07;;;;;;;0.30;0.20;;;26.70;99.90;;;;;;20906880;28;20217;-64
2021/07/02 10:42:13;;;;;;;0.50;0.38;;;26.90;99.90;;;;;;20907652;28;20198;-67
2021/07/02 10:52:22;;;;;;;12.55;0.50;;;28.40;99.90;;;;;;20907200;28;20226;-67
2021/07/02 11:02:26;;;;;;;0.80;0.68;;;28.10;99.90;;;;;;20906587;28;20253;-68
2021/07/02 11:12:33;;;;;;;0.68;0.50;;;28.40;99.90;;;;;;20905621;28;20302;-68
2021/07/02 11:22:39;;;;;;;1.10;0.77;;;28.90;99.90;;;;;;20904709;28;20225;-69
2021/07/02 11:32:48;;;;;;;0.80;0.57;;;29.10;99.90;;;;;;20901483;28;20224;-69
2021/07/02 11:42:52;;;;;;;1.35;0.77;;;30.10;99.90;;;;;;20903448;28;20193;-67
2021/07/02 11:52:57;;;;;;;0.90;0.80;;;30.20;99.90;;;;;;20902878;28;20260;-67
2021/07/02 12:03:01;;;;;;;2.10;1.23;;;31.00;99.90;;;;;;20901632;28;20651;-67
2021/07/02 12:13:07;;;;;;;14.65;0.95;;;31.20;99.90;;;;;;20899933;28;20213;-67
2021/07/02 12:23:11;;;;;;;1.00;0.90;;;30.40;99.90;;;;;;20901554;28;20193;-67
2021/07/02 12:33:44;;;;;;;1.15;0.50;;;30.90;99.90;;;;;;20870132;28;20201;-68
2021/07/02 12:43:47;;;;;;;0.80;0.38;;;31.30;99.90;;;;;;20901079;28;20206;-68
2021/07/02 13:04:16;;;;;;;1.95;1.55;;;32.60;99.90;;;;;;20856273;28;20580;-68
2021/07/02 13:14:30;;;;;;;1.52;1.17;;;31.70;99.90;;;;;;20898014;28;20577;-67
2021/07/02 13:24:34;;;;;;;1.63;1.02;;;32.20;99.90;;;;;;20896961;28;20248;-68
2021/07/02 13:34:44;;;;;;;1.65;1.23;;;33.30;99.90;;;;;;20897626;28;20224;-68
2021/07/02 13:44:54;;;;;;;0.60;0.60;;;33.60;99.90;;;;;;20896996;28;20276;-66
2021/07/02 13:55:00;;;;;;;0.88;0.60;;;33.10;99.90;;;;;;20877822;28;20217;-66
2021/07/02 14:05:04;;;;;;;0.73;0.65;;;32.30;99.90;;;;;;20895602;28;20768;-65
2021/07/02 14:15:10;;;;;;;1.38;0.60;;;33.00;99.90;;;;;;20895592;28;20283;-67
2021/07/02 14:25:16;;;;;;;1.52;0.90;;;33.10;99.90;;;;;;20893774;28;20194;-65
2021/07/02 14:35:21;;;;;;;0.60;0.60;;;33.30;99.90;;;;;;20880172;28;20252;-65
2021/07/02 14:45:25;;;;;;;2.35;1.33;;;33.90;99.90;;;;;;20907120;28;20193;-67
2021/07/02 14:55:34;;;;;;;2.20;1.02;;;34.70;99.90;;;;;;20905427;28;20227;-66
2021/07/02 15:05:38;;;;;;;1.23;1.13;;;35.20;99.90;;;;;;20903145;28;20308;-67
2021/07/02 15:15:43;;;;;;;1.77;1.00;;;35.60;99.90;;;;;;20901301;28;20267;-66
2021/07/02 15:25:47;;;;;;;0.47;0.45;;;34.40;99.90;;;;;;20902186;28;20282;-66
2021/07/02 15:35:52;;;;;;;2.17;1.13;;;34.00;99.90;;;;;;20883738;28;20221;-67
2021/07/02 15:45:56;;;;;;;0.75;0.68;;;33.10;99.90;;;;;;20900283;28;20662;-67
2021/07/02 15:56:03;;;;;;;1.23;1.13;;;33.60;99.90;;;;;;20898836;28;20244;-66
2021/07/02 16:06:08;;;;;;;0.75;0.55;;;33.60;99.90;;;;;;20898634;28;20226;-66
2021/07/02 16:16:13;;;;;;;1.50;1.00;;;33.70;99.90;;;;;;20897873;28;20287;-67
2021/07/02 16:26:17;;;;;;;1.75;0.98;;;33.60;99.90;;;;;;20895877;28;20237;-66
2021/07/02 16:36:22;;;;;;;0.60;0.60;;;33.20;99.90;;;;;;20895381;28;20252;-65
2021/07/02 16:46:27;;;;;;;0.73;0.50;;;33.40;99.90;;;;;;20895462;28;20198;-65
2021/07/02 16:56:32;;;;;;;0.93;0.90;;;33.40;99.90;;;;;;20877084;28;20232;-66
2021/07/02 17:06:35;;;;;;;9.00;1.00;;;32.00;99.90;;;;;;20876449;28;20229;-66
2021/07/02 17:16:42;;;;;;;1.20;0.40;;;31.70;99.90;;;;;;20876857;28;20336;-67
2021/07/02 17:26:46;;;;;;;0.63;0.57;;;32.20;99.90;;;;;;20892622;28;20197;-66
2021/07/02 17:36:51;;;;;;;1.00;0.73;;;32.10;99.90;;;;;;20894162;28;20279;-68
2021/07/02 17:46:55;;;;;;;0.77;0.65;;;31.90;99.90;;;;;;20895938;28;20276;-68
2021/07/02 17:57:05;;;;;;;1.35;0.85;;;30.90;99.90;;;;;;20894368;28;20631;-68
2021/07/02 18:07:09;;;;;;;1.27;0.90;;;30.70;99.90;;;;;;20888316;28;20670;-68
2021/07/02 18:17:14;;;;;;;1.15;0.82;;;31.10;99.90;;;;;;20907944;28;20707;-68
2021/07/02 18:27:18;;;;;;;0.52;0.52;;;29.70;99.90;;;;;;20909039;28;20232;-66
2021/07/02 18:37:23;;;;;;;0.63;0.55;;;29.50;99.90;;;;;;20907372;28;20221;-68
2021/07/02 18:47:27;;;;;;;2.72;1.13;;;29.50;99.90;;;;;;20906678;28;20217;-68
2021/07/02 18:57:32;;;;;;;1.48;1.02;;;29.10;99.90;;;;;;20905261;28;20554;-68
2021/07/02 19:07:36;;;;;;;4.18;0.93;;;28.50;99.90;;;;;;20903617;28;20263;-66
2021/07/02 19:17:41;;;;;;;1.65;0.50;;;26.40;99.90;;;;;;20903223;28;20283;-68
2021/07/02 19:27:46;;;;;;;2.70;2.00;;;26.10;99.90;;;;;;20901249;28;20260;-67
2021/07/02 19:37:53;;;;;;;2.90;1.40;;;25.70;99.90;;;;;;20902922;28;20232;-68
2021/07/02 19:47:56;;;;;;;1.05;0.85;;;25.40;99.90;;;;;;20883873;28;20264;-68
2021/07/02 19:58:02;;;;;;;2.35;0.90;;;25.30;99.90;;;;;;20901789;28;20245;-68
2021/07/02 20:08:06;;;;;;;0.98;0.85;;;25.30;99.90;;;;;;20902740;28;20464;-67
2021/07/02 20:18:11;;;;;;;0.47;0.47;;;25.10;99.90;;;;;;20883574;28;20323;-67
2021/07/02 20:28:16;;;;;;;6.15;0.90;;;25.20;99.90;;;;;;20898893;28;20248;-68
2021/07/02 20:38:23;;;;;;;1.35;1.15;;;25.00;99.90;;;;;;20886526;28;20312;-66
2021/07/02 20:48:27;;;;;;;1.30;0.90;;;24.80;99.90;;;;;;20864910;28;20236;-67
2021/07/02 20:58:33;;;;;;;0.98;0.80;;;24.70;99.90;;;;;;20814353;28;20228;-67
2021/07/02 21:08:37;;;;;;;0.32;0.28;;;24.40;99.90;;;;;;20889229;28;20255;-69
2021/07/02 21:18:42;;;;;;;0.75;0.75;;;24.00;99.90;;;;;;20891376;28;20596;-66
2021/07/02 21:28:46;;;;;;;1.48;0.85;;;23.90;99.90;;;;;;20897154;28;20589;-68
2021/07/02 21:38:51;;;;;;;10.50;1.38;;;23.60;99.90;;;;;;20895739;28;20217;-65
2021/07/02 21:48:54;;;;;;;1.88;0.90;;;23.70;99.90;;;;;;20905826;28;20277;-65
2021/07/02 21:58:59;;;;;;;10.50;0.83;;;23.60;99.90;;;;;;20912556;28;20221;-68
2021/07/02 22:09:03;;;;;;;2.00;0.83;;;23.60;99.90;;;;;;20892759;28;20225;-65
2021/07/02 22:19:08;;;;;;;0.43;0.40;;;23.40;99.90;;;;;;20910057;28;20308;-65
2021/07/02 22:29:12;;;;;;;0.90;0.50;;;23.10;99.90;;;;;;20909810;28;20223;-66
2021/07/02 22:39:17;;;;;;;2.53;0.80;;;23.10;99.90;;;;;;20907386;28;20339;-66
2021/07/02 22:49:21;;;;;;;0.50;0.50;;;23.10;99.90;;;;;;20908777;28;20556;-66
2021/07/02 22:59:26;;;;;;;0.67;0.60;;;22.90;99.90;;;;;;20907576;28;20217;-67
2021/07/02 23:09:30;;;;;;;0.40;0.30;;;22.80;99.90;;;;;;20888808;28;20246;-65
2021/07/02 23:19:35;;;;;;;0.67;0.53;;;22.90;99.90;;;;;;20905575;28;20229;-65
2021/07/02 23:29:38;;;;;;;1.43;0.90;;;22.80;99.90;;;;;;20905473;28;20232;-65
2021/07/02 23:39:43;;;;;;;1.77;0.80;;;22.70;99.90;;;;;;20886295;28;20548;-66
2021/07/02 23:49:47;;;;;;;18.13;2.30;;;22.60;99.90;;;;;;20905501;28;20225;-66
2021/07/02 23:59:52;;;;;;;0.60;0.43;;;22.50;99.90;;;;;;20886602;28;20265;-67
